createdAt,value
2018-03-03T00:00:06.560Z,39.67
2018-03-03T00:02:34.726Z,41.43
2018-03-03T00:05:03.236Z,39.63
2018-03-03T00:07:31.240Z,39.17
2018-03-03T00:09:59.251Z,42.20
2018-03-03T00:12:27.843Z,37.40
2018-03-03T00:14:55.923Z,42.30
2018-03-03T00:17:23.805Z,41.73
2018-03-03T00:19:51.969Z,41.33
2018-03-03T00:22:32.190Z,40.73
2018-03-03T00:25:00.193Z,41.60
2018-03-03T00:27:28.149Z,43.37
2018-03-03T00:29:56.087Z,39.90
2018-03-03T00:32:24.007Z,39.10
2018-03-03T00:34:51.874Z,44.43
2018-03-03T00:37:19.687Z,40.30
2018-03-03T00:39:47.584Z,41.93
2018-03-03T00:42:15.548Z,39.57
2018-03-03T00:44:43.612Z,40.00
2018-03-03T00:47:11.530Z,41.63
2018-03-03T00:49:39.423Z,41.63
2018-03-03T00:52:07.442Z,42.53
2018-03-03T00:54:35.482Z,41.77
2018-03-03T00:57:03.377Z,38.57
2018-03-03T00:59:31.451Z,43.27
2018-03-03T01:02:00.346Z,42.77
2018-03-03T01:04:28.415Z,41.57
2018-03-03T01:06:57.168Z,39.57
2018-03-03T01:09:25.032Z,40.10
2018-03-03T01:11:52.996Z,38.03
2018-03-03T01:14:20.815Z,41.70
2018-03-03T01:16:48.875Z,40.43
2018-03-03T01:19:16.952Z,42.43
2018-03-03T01:21:44.818Z,38.80
2018-03-03T01:24:12.887Z,42.00
2018-03-03T01:26:40.825Z,40.00
2018-03-03T01:29:09.646Z,40.00
2018-03-03T01:31:37.513Z,42.97
2018-03-03T01:34:05.410Z,39.97
2018-03-03T01:36:33.878Z,41.20
2018-03-03T01:39:02.137Z,42.37
2018-03-03T01:41:29.924Z,44.17
2018-03-03T01:43:57.794Z,42.27
2018-03-03T01:46:25.638Z,41.40
2018-03-03T01:48:53.427Z,43.83
2018-03-03T01:51:32.994Z,43.47
2018-03-03T01:54:01.086Z,38.70
2018-03-03T01:56:29.190Z,42.80
2018-03-03T01:58:57.119Z,41.73
2018-03-03T02:01:24.930Z,41.40
2018-03-03T02:03:53.057Z,43.20
2018-03-03T02:06:20.918Z,38.00
2018-03-03T02:08:49.038Z,43.33
2018-03-03T02:11:17.119Z,41.97
2018-03-03T02:13:45.272Z,42.03
2018-03-03T02:16:13.045Z,38.40
2018-03-03T02:18:40.952Z,38.87
2018-03-03T02:21:10.080Z,41.80
2018-03-03T02:23:38.160Z,38.47
2018-03-03T02:26:06.276Z,40.27
2018-03-03T02:28:34.227Z,37.03
2018-03-03T02:31:02.162Z,45.70
2018-03-03T02:33:30.030Z,43.03
2018-03-03T02:35:57.873Z,42.30
2018-03-03T02:38:25.862Z,43.40
2018-03-03T02:40:53.756Z,44.73
2018-03-03T02:43:21.827Z,41.87
2018-03-03T02:45:49.913Z,43.87
2018-03-03T02:48:18.005Z,43.10
2018-03-03T02:50:46.062Z,42.27
2018-03-03T02:53:14.127Z,45.27
2018-03-03T02:55:42.058Z,44.73
2018-03-03T02:58:09.975Z,43.37
2018-03-03T03:00:38.034Z,44.20
2018-03-03T03:03:06.155Z,46.33
2018-03-03T03:05:34.076Z,40.23
2018-03-03T03:08:02.153Z,44.67
2018-03-03T03:10:30.222Z,42.10
2018-03-03T03:12:58.125Z,48.70
2018-03-03T03:15:26.527Z,43.40
2018-03-03T03:17:54.508Z,43.80
2018-03-03T03:20:22.425Z,47.67
2018-03-03T03:22:50.568Z,40.60
2018-03-03T03:25:18.409Z,41.90
2018-03-03T03:27:46.774Z,39.50
2018-03-03T03:30:14.866Z,40.50
2018-03-03T03:32:43.381Z,43.70
2018-03-03T03:35:11.451Z,42.07
2018-03-03T03:37:39.468Z,41.90
2018-03-03T03:40:07.584Z,42.50
2018-03-03T03:42:36.148Z,40.90
2018-03-03T03:45:03.956Z,40.47
2018-03-03T03:47:31.829Z,43.23
2018-03-03T03:50:00.902Z,42.83
2018-03-03T03:52:28.969Z,43.07
2018-03-03T03:54:57.051Z,42.17
2018-03-03T03:57:24.955Z,42.90
2018-03-03T03:59:53.341Z,43.87
2018-03-03T04:02:22.083Z,40.60
2018-03-03T04:04:50.003Z,43.83
2018-03-03T04:07:18.096Z,44.23
2018-03-03T04:09:45.962Z,45.53
2018-03-03T04:12:13.932Z,43.43
2018-03-03T04:14:42.522Z,40.90
2018-03-03T04:17:10.415Z,42.50
2018-03-03T04:19:38.485Z,43.67
2018-03-03T04:22:06.453Z,40.37
2018-03-03T04:24:34.591Z,44.60
2018-03-03T04:27:02.411Z,41.93
2018-03-03T04:29:30.471Z,44.03
2018-03-03T04:31:58.489Z,44.70
2018-03-03T04:34:26.817Z,44.07
2018-03-03T04:36:54.589Z,40.80
2018-03-03T04:39:22.737Z,41.10
2018-03-03T04:41:50.928Z,40.67
2018-03-03T04:44:18.871Z,43.53
2018-03-03T04:46:47.746Z,41.83
2018-03-03T04:49:16.451Z,38.63
2018-03-03T04:51:44.547Z,41.00
2018-03-03T04:54:12.618Z,41.60
2018-03-03T04:56:40.688Z,42.97
2018-03-03T04:59:14.048Z,42.20
2018-03-03T05:01:58.912Z,41.90
2018-03-03T05:04:29.904Z,45.23
2018-03-03T05:07:18.478Z,42.20
2018-03-03T05:09:46.518Z,40.10
2018-03-03T05:12:18.085Z,40.70
2018-03-03T05:14:52.101Z,39.50
2018-03-03T05:17:25.990Z,36.20
2018-03-03T05:19:59.580Z,40.03
2018-03-03T05:22:33.195Z,39.60
2018-03-03T05:25:17.113Z,40.83
2018-03-03T05:27:50.567Z,35.67
2018-03-03T05:30:35.296Z,36.77
2018-03-03T05:33:08.900Z,35.10
2018-03-03T05:35:55.503Z,34.93
2018-03-03T05:38:42.172Z,38.23
2018-03-03T05:41:15.783Z,35.97
2018-03-03T05:43:49.422Z,38.50
2018-03-03T05:46:22.941Z,37.80
2018-03-03T05:48:56.386Z,38.10
2018-03-03T05:51:24.481Z,37.30
2018-03-03T05:54:09.156Z,36.63
2018-03-03T05:56:47.056Z,38.90
2018-03-03T05:59:34.850Z,35.43
2018-03-03T06:02:06.321Z,34.03
2018-03-03T06:04:45.155Z,32.00
2018-03-03T06:07:29.925Z,35.60
2018-03-03T06:09:57.995Z,35.80
2018-03-03T06:12:26.054Z,35.87
2018-03-03T06:14:53.898Z,32.37
2018-03-03T06:17:21.915Z,36.50
2018-03-03T06:19:49.957Z,34.67
2018-03-03T06:22:18.080Z,31.57
2018-03-03T06:24:45.992Z,35.63
2018-03-03T06:27:14.906Z,35.10
2018-03-03T06:29:44.209Z,37.33
2018-03-03T06:32:12.192Z,36.57
2018-03-03T06:34:40.332Z,35.10
2018-03-03T06:37:08.426Z,36.63
2018-03-03T06:39:36.275Z,35.93
2018-03-03T06:42:05.161Z,38.83
2018-03-03T06:44:32.967Z,37.70
2018-03-03T06:47:00.840Z,38.10
2018-03-03T06:49:28.770Z,38.57
2018-03-03T06:51:57.062Z,38.27
2018-03-03T06:54:25.072Z,37.50
2018-03-03T06:56:53.214Z,38.80
2018-03-03T06:59:21.576Z,38.60
2018-03-03T07:01:49.717Z,35.03
2018-03-03T07:04:17.541Z,39.47
2018-03-03T07:06:45.596Z,36.13
2018-03-03T07:09:13.578Z,39.87
2018-03-03T07:11:41.858Z,37.50
2018-03-03T07:14:09.923Z,40.60
2018-03-03T07:16:38.794Z,37.83
2018-03-03T07:19:06.800Z,39.90
2018-03-03T07:21:34.875Z,38.00
2018-03-03T07:24:02.772Z,36.77
2018-03-03T07:26:30.589Z,39.20
2018-03-03T07:28:58.707Z,41.80
2018-03-03T07:31:26.725Z,38.10
2018-03-03T07:33:54.736Z,42.60
2018-03-03T07:36:23.429Z,44.50
2018-03-03T07:38:52.051Z,47.93
2018-03-03T07:41:20.212Z,48.40
2018-03-03T07:43:48.311Z,51.70
2018-03-03T07:46:16.383Z,51.17
2018-03-03T07:48:45.791Z,50.93
2018-03-03T07:51:13.667Z,51.37
2018-03-03T07:53:41.723Z,45.10
2018-03-03T07:56:09.744Z,48.37
2018-03-03T07:58:49.655Z,47.37
2018-03-03T08:01:17.797Z,45.70
2018-03-03T08:03:45.643Z,49.40
2018-03-03T08:06:13.657Z,53.20
2018-03-03T08:08:41.676Z,61.70
2018-03-03T08:11:09.803Z,54.70
2018-03-03T08:13:37.873Z,52.93
2018-03-03T08:16:06.149Z,45.40
2018-03-03T08:18:35.064Z,38.87
2018-03-03T08:21:03.760Z,38.60
2018-03-03T08:23:31.777Z,38.73
2018-03-03T08:25:59.870Z,46.27
2018-03-03T08:28:27.942Z,52.30
2018-03-03T08:30:55.697Z,47.23
2018-03-03T08:33:23.779Z,47.97
2018-03-03T08:35:51.834Z,51.67
2018-03-03T08:38:19.904Z,50.30
2018-03-03T08:40:47.773Z,48.10
2018-03-03T08:43:15.912Z,48.13
2018-03-03T08:45:43.912Z,46.30
2018-03-03T08:48:11.902Z,46.63
2018-03-03T08:50:40.038Z,46.67
2018-03-03T08:53:07.905Z,44.80
2018-03-03T08:55:35.914Z,46.87
2018-03-03T08:58:03.866Z,43.37
2018-03-03T09:00:31.559Z,45.03
2018-03-03T09:02:59.450Z,44.40
2018-03-03T09:05:27.158Z,42.60
2018-03-03T09:07:54.850Z,44.10
2018-03-03T09:10:23.143Z,42.20
2018-03-03T09:12:50.853Z,44.20
2018-03-03T09:15:18.588Z,47.77
2018-03-03T09:17:46.359Z,45.10
2018-03-03T09:20:14.051Z,43.63
2018-03-03T09:22:42.690Z,40.80
2018-03-03T09:25:10.391Z,43.10
2018-03-03T09:27:38.228Z,40.40
2018-03-03T09:30:06.883Z,38.80
2018-03-03T09:32:34.694Z,42.77
2018-03-03T09:35:02.400Z,41.30
2018-03-03T09:37:30.161Z,40.43
2018-03-03T09:39:58.648Z,43.00
2018-03-03T09:42:27.255Z,44.10
2018-03-03T09:44:54.977Z,42.90
2018-03-03T09:47:22.774Z,41.60
2018-03-03T09:49:50.593Z,43.20
2018-03-03T09:52:18.322Z,41.00
2018-03-03T09:54:46.143Z,40.37
2018-03-03T09:57:13.897Z,43.83
2018-03-03T09:59:41.642Z,44.30
2018-03-03T10:02:09.352Z,41.93
2018-03-03T10:04:37.137Z,43.40
2018-03-03T10:07:04.841Z,45.23
2018-03-03T10:09:32.656Z,40.70
2018-03-03T10:12:00.370Z,37.93
2018-03-03T10:14:28.084Z,43.83
2018-03-03T10:16:55.851Z,38.67
2018-03-03T10:19:23.562Z,34.33
2018-03-03T10:21:51.359Z,33.53
2018-03-03T10:24:19.047Z,50.20
2018-03-03T10:26:46.838Z,44.00
2018-03-03T10:29:14.617Z,39.77
2018-03-03T10:31:42.781Z,39.80
2018-03-03T10:34:10.505Z,39.17
2018-03-03T10:36:38.266Z,40.63
2018-03-03T10:39:06.088Z,40.63
2018-03-03T10:41:33.816Z,42.73
2018-03-03T10:44:01.590Z,38.87
2018-03-03T10:46:30.160Z,41.40
2018-03-03T10:48:57.924Z,36.83
2018-03-03T10:51:25.620Z,40.20
2018-03-03T10:53:54.284Z,41.50
2018-03-03T10:56:22.327Z,42.27
2018-03-03T10:58:50.069Z,41.47
2018-03-03T11:01:17.882Z,42.17
2018-03-03T11:03:45.575Z,43.03
2018-03-03T11:06:13.329Z,46.60
2018-03-03T11:08:41.070Z,44.00
2018-03-03T11:11:09.014Z,40.30
2018-03-03T11:13:36.727Z,42.73
2018-03-03T11:16:04.540Z,35.97
2018-03-03T11:18:33.382Z,32.87
2018-03-03T11:21:01.090Z,32.23
2018-03-03T11:23:28.845Z,33.57
2018-03-03T11:25:56.611Z,33.43
2018-03-03T11:28:24.359Z,37.90
2018-03-03T11:30:52.083Z,37.57
2018-03-03T11:33:19.909Z,41.60
2018-03-03T11:35:47.613Z,40.47
2018-03-03T11:38:15.331Z,38.20
2018-03-03T11:40:43.088Z,38.47
2018-03-03T11:43:11.337Z,38.80
2018-03-03T11:45:39.004Z,40.67
2018-03-03T11:48:06.793Z,36.87
2018-03-03T11:50:34.501Z,38.10
2018-03-03T11:53:02.260Z,35.83
2018-03-03T11:55:29.974Z,39.03
2018-03-03T11:57:57.764Z,35.27
2018-03-03T12:00:25.537Z,35.63
2018-03-03T12:02:53.261Z,36.10
2018-03-03T12:05:21.068Z,34.37
2018-03-03T12:07:48.782Z,30.43
2018-03-03T12:10:16.495Z,34.57
2018-03-03T12:12:44.311Z,32.63
2018-03-03T12:15:12.048Z,34.80
2018-03-03T12:17:39.796Z,33.10
2018-03-03T12:20:07.516Z,30.33
2018-03-03T12:22:35.296Z,27.93
2018-03-03T12:25:03.045Z,30.17
2018-03-03T12:27:30.899Z,28.40
2018-03-03T12:29:58.632Z,31.47
2018-03-03T12:32:26.409Z,25.67
2018-03-03T12:34:54.147Z,25.20
2018-03-03T12:37:22.132Z,26.13
2018-03-03T12:39:49.880Z,23.70
2018-03-03T12:42:17.620Z,22.10
2018-03-03T12:44:45.396Z,20.83
2018-03-03T12:47:13.168Z,20.00
2018-03-03T12:49:40.927Z,23.10
2018-03-03T12:52:08.667Z,21.63
2018-03-03T12:54:36.406Z,21.43
2018-03-03T12:57:04.112Z,18.43
2018-03-03T12:59:31.885Z,16.20
2018-03-03T13:01:59.612Z,16.60
2018-03-03T13:04:27.330Z,16.70
2018-03-03T13:06:55.126Z,15.53
2018-03-03T13:09:22.832Z,14.90
2018-03-03T13:11:51.191Z,16.27
2018-03-03T13:14:18.875Z,13.60
2018-03-03T13:16:46.641Z,12.90
2018-03-03T13:19:14.407Z,13.80
2018-03-03T13:21:42.220Z,13.87
2018-03-03T13:24:10.263Z,12.67
2018-03-03T13:26:39.164Z,16.73
2018-03-03T13:29:06.905Z,15.10
2018-03-03T13:31:34.664Z,14.23
2018-03-03T13:34:02.400Z,14.10
2018-03-03T13:36:30.197Z,13.90
2018-03-03T13:38:57.963Z,13.70
2018-03-03T13:41:25.732Z,12.50
2018-03-03T13:43:53.498Z,12.10
2018-03-03T13:46:21.264Z,13.30
2018-03-03T13:48:48.969Z,14.63
2018-03-03T13:51:16.725Z,12.30
2018-03-03T13:53:44.527Z,13.40
2018-03-03T13:56:12.953Z,13.50
2018-03-03T13:58:40.761Z,12.63
2018-03-03T14:01:09.551Z,11.53
2018-03-03T14:03:37.396Z,12.23
2018-03-03T14:06:05.108Z,9.90
2018-03-03T14:08:32.862Z,10.43
2018-03-03T14:11:00.693Z,10.17
2018-03-03T14:13:28.578Z,9.43
2018-03-03T14:15:56.396Z,11.47
2018-03-03T14:18:24.120Z,10.40
2018-03-03T14:20:51.888Z,9.57
2018-03-03T14:23:19.632Z,10.53
2018-03-03T14:25:47.349Z,10.70
2018-03-03T14:28:15.211Z,11.40
2018-03-03T14:30:42.945Z,10.20
2018-03-03T14:33:10.674Z,12.50
2018-03-03T14:35:38.410Z,10.63
2018-03-03T14:38:06.184Z,10.30
2018-03-03T14:40:33.907Z,12.30
2018-03-03T14:43:01.646Z,11.10
2018-03-03T14:45:29.417Z,10.87
2018-03-03T14:47:57.183Z,8.63
2018-03-03T14:50:24.935Z,9.63
2018-03-03T14:52:52.660Z,9.57
2018-03-03T14:55:20.354Z,9.67
2018-03-03T14:57:48.132Z,10.27
2018-03-03T15:00:15.833Z,11.93
2018-03-03T15:02:43.635Z,9.77
2018-03-03T15:05:11.377Z,9.87
2018-03-03T15:07:39.408Z,10.67
2018-03-03T15:10:07.146Z,10.27
2018-03-03T15:12:34.905Z,13.07
2018-03-03T15:15:02.585Z,11.33
2018-03-03T15:17:30.318Z,10.67
2018-03-03T15:19:58.077Z,10.73
2018-03-03T15:22:25.758Z,12.17
2018-03-03T15:24:53.528Z,13.87
2018-03-03T15:27:21.304Z,13.37
2018-03-03T15:29:49.074Z,14.20
2018-03-03T15:32:18.054Z,10.73
2018-03-03T15:34:45.903Z,12.17
2018-03-03T15:37:13.697Z,13.40
2018-03-03T15:39:41.491Z,12.73
2018-03-03T15:42:09.341Z,11.40
2018-03-03T15:44:37.189Z,9.93
2018-03-03T15:47:04.887Z,11.17
2018-03-03T15:49:33.436Z,15.87
2018-03-03T15:52:02.348Z,19.93
2018-03-03T15:54:30.194Z,24.23
2018-03-03T15:56:57.922Z,16.43
2018-03-03T15:59:25.721Z,16.73
2018-03-03T16:01:53.465Z,19.40
2018-03-03T16:04:21.249Z,19.37
2018-03-03T16:06:49.036Z,19.73
2018-03-03T16:09:16.776Z,21.97
2018-03-03T16:11:44.587Z,21.53
2018-03-03T16:14:12.314Z,21.90
2018-03-03T16:16:40.039Z,22.93
2018-03-03T16:19:07.898Z,20.03
2018-03-03T16:21:35.672Z,21.03
2018-03-03T16:24:03.497Z,21.40
2018-03-03T16:26:31.257Z,16.53
2018-03-03T16:28:58.984Z,17.10
2018-03-03T16:31:26.768Z,15.00
2018-03-03T16:33:55.039Z,12.00
2018-03-03T16:36:22.881Z,11.17
2018-03-03T16:38:50.570Z,12.07
2018-03-03T16:41:18.499Z,11.70
2018-03-03T16:43:46.304Z,14.53
2018-03-03T16:46:14.118Z,17.57
2018-03-03T16:48:41.897Z,12.60
2018-03-03T16:51:09.746Z,17.80
2018-03-03T16:53:37.495Z,22.23
2018-03-03T16:56:05.378Z,25.27
2018-03-03T16:58:33.121Z,27.43
2018-03-03T17:01:00.929Z,26.20
2018-03-03T17:03:28.828Z,25.73
2018-03-03T17:05:56.689Z,28.37
2018-03-03T17:08:24.469Z,27.60
2018-03-03T17:10:52.240Z,21.70
2018-03-03T17:13:20.174Z,12.93
2018-03-03T17:15:47.960Z,13.00
2018-03-03T17:18:15.926Z,11.80
2018-03-03T17:20:44.946Z,14.33
2018-03-03T17:23:12.714Z,14.67
2018-03-03T17:25:40.542Z,14.10
2018-03-03T17:28:08.261Z,17.00
2018-03-03T17:30:36.090Z,14.73
2018-03-03T17:33:03.845Z,13.50
2018-03-03T17:35:31.692Z,14.20
2018-03-03T17:38:00.380Z,16.37
2018-03-03T17:40:28.249Z,20.97
2018-03-03T17:42:56.036Z,16.43
2018-03-03T17:45:24.906Z,16.37
2018-03-03T17:47:52.658Z,17.80
2018-03-03T17:50:20.502Z,17.83
2018-03-03T17:52:48.310Z,19.70
2018-03-03T17:55:16.176Z,31.60
2018-03-03T17:57:44.963Z,35.80
2018-03-03T18:00:12.823Z,37.00
2018-03-03T18:02:40.602Z,35.87
2018-03-03T18:05:08.451Z,34.53
2018-03-03T18:07:36.221Z,34.87
2018-03-03T18:10:04.075Z,36.57
2018-03-03T18:12:31.840Z,37.17
2018-03-03T18:14:59.582Z,35.23
2018-03-03T18:17:27.355Z,32.73
2018-03-03T18:19:55.051Z,26.17
2018-03-03T18:22:22.829Z,22.80
2018-03-03T18:24:50.538Z,23.07
2018-03-03T18:27:18.244Z,20.40
2018-03-03T18:29:46.066Z,19.20
2018-03-03T18:32:13.983Z,21.60
2018-03-03T18:34:41.796Z,24.80
2018-03-03T18:37:09.511Z,27.10
2018-03-03T18:39:37.416Z,20.83
2018-03-03T18:42:05.129Z,18.60
2018-03-03T18:44:32.965Z,20.93
2018-03-03T18:47:00.837Z,18.50
2018-03-03T18:49:28.601Z,18.30
2018-03-03T18:51:56.343Z,21.90
2018-03-03T18:54:24.069Z,20.47
2018-03-03T18:56:51.829Z,21.10
2018-03-03T18:59:20.110Z,21.43
2018-03-03T19:01:47.860Z,20.67
2018-03-03T19:04:15.703Z,21.90
2018-03-03T19:06:43.406Z,35.50
2018-03-03T19:09:11.099Z,39.87
2018-03-03T19:11:38.916Z,41.07
2018-03-03T19:14:06.712Z,44.87
2018-03-03T19:16:34.774Z,45.03
2018-03-03T19:19:02.535Z,46.57
2018-03-03T19:21:30.657Z,39.10
2018-03-03T19:23:58.549Z,31.30
2018-03-03T19:26:29.387Z,28.10
2018-03-03T19:28:59.735Z,29.20
2018-03-03T19:31:27.557Z,25.10
2018-03-03T19:33:55.394Z,28.70
2018-03-03T19:36:23.193Z,23.57
2018-03-03T19:38:51.266Z,20.60
2018-03-03T19:41:19.146Z,21.60
2018-03-03T19:43:47.845Z,26.90
2018-03-03T19:46:16.535Z,41.10
2018-03-03T19:48:44.297Z,41.63
2018-03-03T19:51:12.901Z,43.67
2018-03-03T19:53:40.725Z,44.77
2018-03-03T19:56:08.570Z,42.83
2018-03-03T19:58:36.598Z,44.27
2018-03-03T20:01:05.274Z,44.33
2018-03-03T20:03:33.023Z,46.77
2018-03-03T20:06:00.775Z,41.97
2018-03-03T20:08:28.541Z,41.60
2018-03-03T20:10:56.267Z,19.90
2018-03-03T20:13:24.002Z,22.07
2018-03-03T20:15:52.404Z,23.87
2018-03-03T20:18:21.119Z,24.30
2018-03-03T20:20:48.802Z,28.77
2018-03-03T20:23:16.529Z,34.47
2018-03-03T20:25:44.237Z,34.00
2018-03-03T20:28:12.025Z,29.53
2018-03-03T20:30:39.721Z,25.60
2018-03-03T20:33:07.527Z,24.80
2018-03-03T20:35:35.347Z,27.40
2018-03-03T20:38:03.058Z,26.33
2018-03-03T20:40:30.793Z,33.13
2018-03-03T20:42:58.546Z,30.23
2018-03-03T20:45:26.388Z,32.70
2018-03-03T20:47:54.155Z,39.37
2018-03-03T20:50:21.941Z,38.40
2018-03-03T20:52:49.770Z,35.93
2018-03-03T20:55:17.608Z,32.20
2018-03-03T20:57:45.469Z,26.30
2018-03-03T21:00:13.467Z,28.27
2018-03-03T21:02:41.222Z,32.70
2018-03-03T21:05:09.114Z,31.40
2018-03-03T21:07:36.948Z,30.83
2018-03-03T21:10:04.835Z,31.60
2018-03-03T21:12:32.661Z,33.70
2018-03-03T21:15:00.452Z,34.23
2018-03-03T21:17:28.249Z,36.00
2018-03-03T21:19:56.095Z,29.60
2018-03-03T21:22:23.894Z,30.37
2018-03-03T21:24:51.630Z,30.50
2018-03-03T21:27:19.319Z,32.80
2018-03-03T21:29:47.095Z,32.50
2018-03-03T21:32:14.783Z,38.00
2018-03-03T21:34:42.662Z,32.87
2018-03-03T21:37:10.382Z,31.50
2018-03-03T21:39:38.089Z,32.10
2018-03-03T21:42:05.860Z,34.00
2018-03-03T21:44:33.567Z,34.83
2018-03-03T21:47:01.407Z,33.20
2018-03-03T21:49:29.171Z,31.27
2018-03-03T21:51:56.899Z,31.60
2018-03-03T21:54:24.691Z,34.50
2018-03-03T21:56:52.395Z,33.43
2018-03-03T21:59:20.197Z,35.43
2018-03-03T22:01:48.715Z,39.80
2018-03-03T22:04:16.535Z,36.47
2018-03-03T22:06:44.297Z,35.30
2018-03-03T22:09:12.003Z,31.70
2018-03-03T22:11:39.723Z,38.10
2018-03-03T22:14:07.417Z,35.33
2018-03-03T22:16:35.151Z,34.87
2018-03-03T22:19:02.918Z,31.60
2018-03-03T22:21:30.679Z,31.80
2018-03-03T22:23:58.440Z,30.80
2018-03-03T22:26:26.100Z,29.70
2018-03-03T22:28:53.785Z,33.40
2018-03-03T22:31:21.720Z,33.43
2018-03-03T22:33:50.388Z,31.53
2018-03-03T22:36:18.177Z,32.50
2018-03-03T22:38:45.853Z,32.77
2018-03-03T22:41:13.623Z,31.50
2018-03-03T22:43:41.303Z,31.77
2018-03-03T22:46:09.061Z,41.80
2018-03-03T22:48:36.864Z,43.13
2018-03-03T22:51:04.568Z,44.40
2018-03-03T22:53:32.323Z,44.23
2018-03-03T22:56:00.033Z,46.80
2018-03-03T22:58:27.777Z,37.60
2018-03-03T23:00:55.499Z,42.17
2018-03-03T23:03:23.217Z,41.10
2018-03-03T23:05:51.005Z,45.00
2018-03-03T23:08:18.720Z,38.23
2018-03-03T23:10:46.501Z,41.13
2018-03-03T23:13:14.214Z,35.97
2018-03-03T23:15:41.975Z,34.70
2018-03-03T23:18:09.643Z,37.33
2018-03-03T23:20:37.411Z,37.33
2018-03-03T23:23:05.099Z,39.47
2018-03-03T23:25:33.183Z,40.43
2018-03-03T23:28:00.869Z,39.30
2018-03-03T23:30:28.588Z,41.27
2018-03-03T23:32:56.291Z,43.30
2018-03-03T23:35:24.005Z,41.70
2018-03-03T23:37:51.764Z,40.93
2018-03-03T23:40:19.431Z,41.80
2018-03-03T23:42:47.168Z,39.07
2018-03-03T23:45:14.906Z,41.80
2018-03-03T23:47:42.692Z,43.00
2018-03-03T23:50:10.496Z,42.40
2018-03-03T23:52:38.237Z,43.87
2018-03-03T23:55:06.003Z,41.00
2018-03-03T23:57:33.837Z,40.83
